createdAt,value
2022-12-20T17:34:37.205Z,4.00
2022-12-20T17:37:05.703Z,4.20
2022-12-20T17:39:33.972Z,4.00
2022-12-20T17:42:02.268Z,3.90
2022-12-20T17:44:31.456Z,3.90
2022-12-20T17:46:59.895Z,4.00
2022-12-20T17:49:30.923Z,4.10
2022-12-20T17:52:02.016Z,4.20
2022-12-20T17:54:38.581Z,4.20
2022-12-20T17:57:12.986Z,4.30
2022-12-20T17:59:41.380Z,4.30
2022-12-20T18:02:20.038Z,4.40
2022-12-20T18:04:48.707Z,4.30
2022-12-20T18:07:18.575Z,4.30
2022-12-20T18:09:51.197Z,4.70
2022-12-20T18:14:52.201Z,4.50
2022-12-20T18:17:20.481Z,4.40
2022-12-20T18:19:48.727Z,4.40
2022-12-20T18:22:18.392Z,4.40
2022-12-20T18:24:46.545Z,4.40
2022-12-20T18:27:15.011Z,4.10
2022-12-20T18:29:43.452Z,4.00
2022-12-20T18:32:12.650Z,4.40
2022-12-20T18:34:40.941Z,4.90
2022-12-20T18:37:09.331Z,4.40
2022-12-20T18:39:38.886Z,4.40
2022-12-20T18:42:07.168Z,4.40
2022-12-20T18:44:36.365Z,4.40
2022-12-20T18:47:06.622Z,4.40
2022-12-20T18:49:35.393Z,4.50
2022-12-20T18:52:03.723Z,4.50
2022-12-20T18:54:31.916Z,4.80
2022-12-20T18:57:01.602Z,4.40
2022-12-20T18:59:29.841Z,3.90
2022-12-20T19:01:58.296Z,4.70
2022-12-20T19:04:26.695Z,4.60
2022-12-20T19:06:55.084Z,4.40
2022-12-20T19:09:23.676Z,4.40
2022-12-20T19:11:57.044Z,4.40
2022-12-20T19:14:27.621Z,4.30
2022-12-20T19:16:55.946Z,4.30
2022-12-20T19:19:24.289Z,4.30
2022-12-20T19:21:52.658Z,4.20
2022-12-20T19:24:21.410Z,4.20
2022-12-20T19:26:49.626Z,4.10
2022-12-20T19:29:17.932Z,4.20
2022-12-20T19:32:00.525Z,4.10
2022-12-20T19:34:29.000Z,4.20
2022-12-20T19:36:57.258Z,4.30
2022-12-20T19:39:25.773Z,4.30
2022-12-20T19:44:43.525Z,3.80
2022-12-20T19:47:14.012Z,4.00
2022-12-20T19:49:46.227Z,4.30
2022-12-20T19:52:28.743Z,4.10
2022-12-20T19:54:59.855Z,4.20
2022-12-20T19:57:28.236Z,4.20
2022-12-20T19:59:56.628Z,4.10
2022-12-20T20:02:26.486Z,3.90
2022-12-20T20:04:54.929Z,4.10
2022-12-20T20:07:26.264Z,4.10
2022-12-20T20:09:54.585Z,4.10
2022-12-20T20:12:22.879Z,4.10
2022-12-20T20:14:52.840Z,4.10
2022-12-20T20:17:21.229Z,4.10
2022-12-20T20:19:53.945Z,4.00
2022-12-20T20:22:23.229Z,4.00
2022-12-20T20:24:51.638Z,4.10
2022-12-20T20:27:19.934Z,4.20
2022-12-20T20:29:50.539Z,4.20
2022-12-20T20:32:18.839Z,4.20
2022-12-20T20:34:47.148Z,4.20
2022-12-20T20:37:19.598Z,4.20
2022-12-20T20:39:47.958Z,4.20
2022-12-20T20:42:22.952Z,4.20
2022-12-20T20:44:51.907Z,4.20
2022-12-20T20:47:20.735Z,4.30
2022-12-20T20:49:49.021Z,4.20
2022-12-20T20:52:18.589Z,4.30
2022-12-20T20:54:46.904Z,4.30
2022-12-20T20:57:15.084Z,4.20
2022-12-20T20:59:45.467Z,4.20
2022-12-20T21:02:14.834Z,4.20
2022-12-20T21:04:49.630Z,4.10
2022-12-20T21:07:32.988Z,4.20
2022-12-20T21:10:01.201Z,4.20
2022-12-20T21:12:29.575Z,4.20
2022-12-20T21:15:22.620Z,4.30
2022-12-20T21:17:48.196Z,4.30
2022-12-20T21:20:19.386Z,4.30
2022-12-20T21:22:53.618Z,4.30
2022-12-20T21:25:21.936Z,4.30
2022-12-20T21:27:50.168Z,4.30
2022-12-20T21:30:18.647Z,4.30
2022-12-20T21:32:47.135Z,4.30
2022-12-20T21:35:15.747Z,4.30
2022-12-20T21:37:44.074Z,4.30
2022-12-20T21:40:14.907Z,4.40
2022-12-20T21:42:43.260Z,4.40
2022-12-20T21:45:12.780Z,4.40
2022-12-20T21:47:41.379Z,4.40
2022-12-20T21:50:10.142Z,4.50
2022-12-20T21:52:40.693Z,4.30
2022-12-20T21:55:09.871Z,4.30
2022-12-20T21:57:39.452Z,4.30
2022-12-20T22:00:11.324Z,4.30
2022-12-20T22:02:39.809Z,4.30
2022-12-20T22:05:08.825Z,4.30
2022-12-20T22:07:37.100Z,4.40
2022-12-20T22:10:05.662Z,4.50
2022-12-20T22:12:34.095Z,4.30
2022-12-20T22:15:03.937Z,4.10
2022-12-20T22:17:32.882Z,4.20
2022-12-20T22:20:01.076Z,4.20
2022-12-20T22:22:29.313Z,4.30
2022-12-20T22:24:57.589Z,4.10
2022-12-20T22:27:25.868Z,4.10
2022-12-20T22:29:54.161Z,4.10
2022-12-20T22:32:23.864Z,4.20
2022-12-20T22:34:52.111Z,4.20
2022-12-20T22:37:20.333Z,4.20
2022-12-20T22:39:49.172Z,4.30
2022-12-20T22:42:17.466Z,4.00
2022-12-20T22:44:45.672Z,4.20
2022-12-20T22:47:13.981Z,4.20
2022-12-20T22:49:43.526Z,4.20
2022-12-20T22:52:11.923Z,4.20
2022-12-20T22:54:41.142Z,4.30
2022-12-20T22:57:10.458Z,4.40
2022-12-20T22:59:38.845Z,4.40
2022-12-20T23:02:07.488Z,4.50
2022-12-20T23:04:35.843Z,4.40
2022-12-20T23:07:05.534Z,4.40
2022-12-20T23:09:33.745Z,4.30
2022-12-20T23:12:19.453Z,4.40
2022-12-20T23:15:05.222Z,4.40
2022-12-20T23:17:33.983Z,4.30
2022-12-20T23:20:19.597Z,4.20
2022-12-20T23:22:49.327Z,4.20
2022-12-20T23:25:19.235Z,4.10
2022-12-20T23:27:50.010Z,3.90
2022-12-20T23:30:20.304Z,3.90
2022-12-20T23:32:49.124Z,4.00
2022-12-20T23:35:19.065Z,4.00
2022-12-20T23:37:49.377Z,4.10
2022-12-20T23:40:18.331Z,4.00
2022-12-20T23:42:46.900Z,4.10
2022-12-20T23:45:15.148Z,4.20
2022-12-20T23:47:43.428Z,4.00
2022-12-20T23:50:12.210Z,3.80
2022-12-20T23:52:40.928Z,3.70
2022-12-20T23:55:11.235Z,3.60
2022-12-20T23:57:40.016Z,3.40
